createdAt,value
2022-10-18T00:02:20.190Z,102821.00
2022-10-18T00:04:47.108Z,102813.41
2022-10-18T00:07:13.542Z,102818.53
2022-10-18T00:09:40.006Z,102810.94
2022-10-18T00:12:06.439Z,102817.13
2022-10-18T00:14:32.950Z,102811.09
2022-10-18T00:16:59.384Z,102817.28
2022-10-18T00:19:28.535Z,102812.03
2022-10-18T00:21:55.847Z,102814.75
2022-10-18T00:24:22.284Z,102807.03
2022-10-18T00:26:48.650Z,102812.41
2022-10-18T00:29:16.523Z,102785.69
2022-10-18T00:31:44.000Z,102811.69
2022-10-18T00:34:14.082Z,102814.41
2022-10-18T00:36:41.497Z,102811.16
2022-10-18T00:39:12.378Z,102815.63
2022-10-18T00:41:38.873Z,102809.84
2022-10-18T00:44:12.738Z,102805.53
2022-10-18T00:46:41.819Z,102810.84
2022-10-18T00:49:17.153Z,102788.47
2022-10-18T00:52:08.202Z,102830.28
2022-10-18T00:54:38.345Z,102819.97
2022-10-18T00:57:06.178Z,102801.03
2022-10-18T00:59:33.783Z,102792.38
2022-10-18T01:02:00.863Z,102817.50
2022-10-18T01:04:27.536Z,102819.66
2022-10-18T01:07:12.870Z,102828.50
2022-10-18T01:09:39.280Z,102829.63
2022-10-18T01:12:49.192Z,102831.47
2022-10-18T01:15:18.363Z,102831.69
2022-10-18T01:18:09.715Z,102840.78
2022-10-18T01:20:55.637Z,102851.53
2022-10-18T01:23:54.462Z,102843.59
2022-10-18T01:26:46.918Z,102834.97
2022-10-18T01:29:31.971Z,102839.00
2022-10-18T01:32:04.895Z,102838.06
2022-10-18T01:34:35.070Z,102831.97
2022-10-18T01:37:05.033Z,102831.97
2022-10-18T01:39:34.856Z,102839.09
2022-10-18T01:42:05.195Z,102833.09
2022-10-18T01:44:33.357Z,102809.22
2022-10-18T01:47:00.416Z,102831.88
2022-10-18T01:49:27.352Z,102838.00
2022-10-18T01:51:53.936Z,102839.94
2022-10-18T01:54:30.945Z,102844.13
2022-10-18T01:57:28.151Z,102845.97
2022-10-18T02:00:03.839Z,102815.97
2022-10-18T02:02:51.609Z,102834.88
2022-10-18T02:05:32.806Z,102828.88
2022-10-18T02:08:23.518Z,102840.63
2022-10-18T02:10:58.866Z,102831.03
2022-10-18T02:13:30.515Z,102840.81
2022-10-18T02:16:03.943Z,102819.34
2022-10-18T02:18:55.063Z,102846.25
2022-10-18T02:21:23.137Z,102847.13
2022-10-18T02:23:50.055Z,102853.09
2022-10-18T02:26:16.760Z,102836.53
2022-10-18T02:28:43.778Z,102847.06
2022-10-18T02:31:26.265Z,102851.25
2022-10-18T02:34:06.457Z,102857.50
2022-10-18T02:36:59.748Z,102855.03
2022-10-18T02:39:38.360Z,102853.16
2022-10-18T02:42:06.859Z,102831.47
2022-10-18T02:44:37.900Z,102843.72
2022-10-18T02:47:06.317Z,102843.09
2022-10-18T02:49:32.720Z,102837.00
2022-10-18T02:51:59.215Z,102831.16
2022-10-18T02:54:25.665Z,102824.38
2022-10-18T02:56:52.099Z,102851.28
2022-10-18T02:59:18.544Z,102852.22
2022-10-18T03:01:45.435Z,102844.38
2022-10-18T03:04:12.097Z,102853.22
2022-10-18T03:06:38.604Z,102865.59
2022-10-18T03:09:06.732Z,102864.94
2022-10-18T03:11:33.272Z,102859.75
2022-10-18T03:13:59.610Z,102873.09
2022-10-18T03:16:26.118Z,102850.13
2022-10-18T03:18:52.575Z,102812.28
2022-10-18T03:21:19.018Z,102855.91
2022-10-18T03:23:45.472Z,102858.56
2022-10-18T03:26:14.346Z,102850.94
2022-10-18T03:28:40.821Z,102838.72
2022-10-18T03:31:07.263Z,102832.88
2022-10-18T03:33:33.847Z,102860.69
2022-10-18T03:36:00.454Z,102866.31
2022-10-18T03:38:27.111Z,102855.78
2022-10-18T03:40:53.504Z,102824.94
2022-10-18T03:43:20.008Z,102860.63
2022-10-18T03:45:46.486Z,102864.38
2022-10-18T03:48:13.107Z,102867.19
2022-10-18T03:50:39.543Z,102871.44
2022-10-18T03:53:06.060Z,102866.28
2022-10-18T03:55:32.488Z,102855.75
2022-10-18T03:57:58.907Z,102853.38
2022-10-18T04:00:25.358Z,102865.59
2022-10-18T04:02:54.934Z,102861.44
2022-10-18T04:05:24.147Z,102866.66
2022-10-18T04:07:50.593Z,102861.41
2022-10-18T04:10:18.613Z,102858.22
2022-10-18T04:12:45.088Z,102865.34
2022-10-18T04:15:11.874Z,102868.72
2022-10-18T04:17:38.331Z,102866.91
2022-10-18T04:20:05.360Z,102870.50
2022-10-18T04:22:31.779Z,102871.41
2022-10-18T04:24:58.348Z,102861.13
2022-10-18T04:27:24.984Z,102867.31
2022-10-18T04:29:51.418Z,102883.00
2022-10-18T04:32:17.863Z,102860.44
2022-10-18T04:34:44.261Z,102857.28
2022-10-18T04:37:10.854Z,102855.75
2022-10-18T04:39:37.257Z,102871.72
2022-10-18T04:42:03.629Z,102866.56
2022-10-18T04:44:30.119Z,102863.94
2022-10-18T04:46:56.550Z,102862.25
2022-10-18T04:49:22.984Z,102856.19
2022-10-18T04:51:49.387Z,102876.25
2022-10-18T04:54:16.134Z,102882.38
2022-10-18T04:56:42.558Z,102882.50
2022-10-18T04:59:08.991Z,102874.75
2022-10-18T05:01:35.444Z,102888.00
2022-10-18T05:04:01.939Z,102888.88
2022-10-18T05:06:28.394Z,102897.09
2022-10-18T05:08:54.832Z,102885.06
2022-10-18T05:11:21.231Z,102885.16
2022-10-18T05:13:50.110Z,102888.63
2022-10-18T05:16:17.790Z,102890.66
2022-10-18T05:18:44.240Z,102877.63
2022-10-18T05:21:12.413Z,102858.03
2022-10-18T05:23:39.196Z,102855.56
2022-10-18T05:26:06.868Z,102893.91
2022-10-18T05:28:39.225Z,102905.41
2022-10-18T05:31:07.991Z,102906.44
2022-10-18T05:33:35.981Z,102899.28
2022-10-18T05:36:02.417Z,102894.91
2022-10-18T05:38:31.025Z,102886.50
2022-10-18T05:40:58.591Z,102922.47
2022-10-18T05:43:28.859Z,102905.03
2022-10-18T05:45:55.315Z,102927.75
2022-10-18T05:48:21.765Z,102927.75
2022-10-18T05:50:48.157Z,102929.63
2022-10-18T05:53:35.250Z,102927.13
2022-10-18T05:56:02.592Z,102935.94
2022-10-18T05:58:29.114Z,102939.50
2022-10-18T06:00:59.023Z,102941.38
2022-10-18T06:03:27.501Z,102938.88
2022-10-18T06:06:02.351Z,102914.75
2022-10-18T06:08:29.068Z,102955.03
2022-10-18T06:10:55.839Z,102940.09
2022-10-18T06:13:22.504Z,102954.25
2022-10-18T06:15:49.161Z,102955.97
2022-10-18T06:18:16.031Z,102955.28
2022-10-18T06:20:42.463Z,102957.06
2022-10-18T06:23:08.878Z,102966.78
2022-10-18T06:25:35.353Z,102956.47
2022-10-18T06:28:06.004Z,102958.38
2022-10-18T06:30:34.872Z,102962.81
2022-10-18T06:33:01.448Z,102971.81
2022-10-18T06:35:28.192Z,102984.78
2022-10-18T06:37:54.672Z,102977.88
2022-10-18T06:40:21.273Z,102979.69
2022-10-18T06:42:59.906Z,102992.88
2022-10-18T06:45:33.341Z,102976.34
2022-10-18T06:48:00.063Z,102990.38
2022-10-18T06:50:26.544Z,102999.13
2022-10-18T06:52:52.986Z,102988.63
2022-10-18T06:55:19.572Z,102987.72
2022-10-18T06:57:46.188Z,102985.97
2022-10-18T07:00:13.295Z,102995.66
2022-10-18T07:02:41.253Z,103011.22
2022-10-18T07:05:08.991Z,102999.75
2022-10-18T07:07:35.663Z,103009.34
2022-10-18T07:10:02.357Z,103002.22
2022-10-18T07:12:28.843Z,102987.31
2022-10-18T07:14:55.272Z,102998.47
2022-10-18T07:17:21.730Z,103000.41
2022-10-18T07:19:48.201Z,102998.44
2022-10-18T07:22:14.799Z,102994.78
2022-10-18T07:24:41.256Z,102982.47
2022-10-18T07:27:07.789Z,103013.88
2022-10-18T07:29:34.642Z,103000.78
2022-10-18T07:32:01.041Z,103021.75
2022-10-18T07:34:28.904Z,103021.69
2022-10-18T07:36:55.294Z,103019.72
2022-10-18T07:39:22.233Z,103014.63
2022-10-18T07:41:48.747Z,103021.06
2022-10-18T07:44:15.209Z,103030.31
2022-10-18T07:46:41.646Z,103021.91
2022-10-18T07:49:08.101Z,103026.72
2022-10-18T07:51:36.022Z,103021.25
2022-10-18T07:54:02.915Z,103037.53
2022-10-18T07:56:29.395Z,103049.78
2022-10-18T07:58:56.223Z,103053.41
2022-10-18T08:01:24.530Z,103014.16
2022-10-18T08:03:52.599Z,103042.22
2022-10-18T08:06:20.685Z,103044.72
2022-10-18T08:08:47.416Z,103049.06
2022-10-18T08:11:19.861Z,103050.78
2022-10-18T08:13:46.956Z,103035.19
2022-10-18T08:16:16.218Z,103038.00
2022-10-18T08:18:42.690Z,103044.72
2022-10-18T08:21:11.704Z,103026.19
2022-10-18T08:23:38.568Z,103051.22
2022-10-18T08:26:16.550Z,103048.50
2022-10-18T08:28:53.478Z,103054.56
2022-10-18T08:31:25.529Z,103061.47
2022-10-18T08:33:51.967Z,103047.97
2022-10-18T08:36:19.310Z,103056.53
2022-10-18T08:38:45.718Z,103076.84
2022-10-18T08:41:15.123Z,103070.63
2022-10-18T08:44:06.378Z,103072.19
2022-10-18T08:46:36.852Z,103057.84
2022-10-18T08:49:04.210Z,103063.69
2022-10-18T08:51:45.227Z,103066.25
2022-10-18T08:54:31.518Z,103067.81
2022-10-18T08:57:04.470Z,103074.56
2022-10-18T08:59:39.007Z,103080.69
2022-10-18T09:02:28.941Z,103092.31
2022-10-18T09:05:19.198Z,103084.59
2022-10-18T09:08:00.824Z,103072.97
2022-10-18T09:10:35.759Z,103082.25
2022-10-18T09:13:36.157Z,103070.13
2022-10-18T09:16:17.574Z,103086.22
2022-10-18T09:19:02.585Z,103096.81
2022-10-18T09:21:51.119Z,103077.44
2022-10-18T09:24:39.230Z,103084.25
2022-10-18T09:27:17.819Z,103066.16
2022-10-18T09:30:10.193Z,103087.09
2022-10-18T09:32:51.623Z,103101.38
2022-10-18T09:35:22.624Z,103100.34
2022-10-18T09:37:53.185Z,103093.91
2022-10-18T09:40:25.193Z,103109.31
2022-10-18T09:42:54.862Z,103118.78
2022-10-18T09:45:41.466Z,103110.59
2022-10-18T09:48:17.147Z,103107.03
2022-10-18T09:50:47.915Z,103103.81
2022-10-18T09:53:25.875Z,103108.91
2022-10-18T09:55:57.315Z,103105.38
2022-10-18T09:58:26.776Z,103120.13
2022-10-18T10:00:53.422Z,103108.03
2022-10-18T10:03:19.919Z,103119.44
2022-10-18T10:05:46.740Z,103115.78
2022-10-18T10:08:13.172Z,103112.88
2022-10-18T10:10:45.434Z,103125.00
2022-10-18T10:13:23.042Z,103117.75
2022-10-18T10:16:03.345Z,103126.53
2022-10-18T10:18:33.334Z,103124.69
2022-10-18T10:21:05.630Z,103126.09
2022-10-18T10:23:45.429Z,103097.09
2022-10-18T10:26:33.376Z,103125.47
2022-10-18T10:29:00.051Z,103127.91
2022-10-18T10:31:36.759Z,103121.38
2022-10-18T10:34:05.981Z,103105.94
2022-10-18T10:36:34.080Z,103126.59
2022-10-18T10:39:16.161Z,103130.91
2022-10-18T10:41:42.610Z,103132.25
2022-10-18T10:44:21.099Z,103144.38
2022-10-18T10:46:50.202Z,103123.38
2022-10-18T10:52:26.900Z,103124.97
2022-10-18T10:55:05.712Z,103141.50
2022-10-18T10:57:38.628Z,103138.19
2022-10-18T11:00:05.523Z,103140.28
2022-10-18T11:02:34.913Z,103149.28
2022-10-18T11:05:24.584Z,103149.47
2022-10-18T11:07:53.353Z,103146.84
2022-10-18T11:10:24.385Z,103133.53
2022-10-18T11:13:23.642Z,103134.88
2022-10-18T11:16:00.313Z,103152.75
2022-10-18T11:18:34.969Z,103157.00
2022-10-18T11:21:07.886Z,103133.38
2022-10-18T11:23:37.154Z,103161.25
2022-10-18T11:26:11.310Z,103145.59
2022-10-18T11:28:49.914Z,103159.06
2022-10-18T11:31:29.967Z,103158.91
2022-10-18T11:34:09.295Z,103164.03
2022-10-18T11:36:54.766Z,103164.19
2022-10-18T11:39:55.602Z,103165.63
2022-10-18T11:42:46.725Z,103147.53
2022-10-18T11:45:39.544Z,103170.81
2022-10-18T11:48:30.279Z,103164.47
2022-10-18T11:51:08.789Z,103156.47
2022-10-18T11:53:48.385Z,103148.81
2022-10-18T11:57:03.241Z,103164.19
2022-10-18T11:59:50.904Z,103126.38
2022-10-18T12:02:38.871Z,103151.84
2022-10-18T12:05:24.033Z,103131.56
2022-10-18T12:07:58.612Z,103153.38
2022-10-18T12:10:44.102Z,103149.97
2022-10-18T12:13:34.412Z,103146.28
2022-10-18T12:16:04.020Z,103142.97
2022-10-18T12:18:31.754Z,103151.28
2022-10-18T12:20:59.733Z,103143.50
2022-10-18T12:23:38.030Z,103132.91
2022-10-18T12:26:07.800Z,103138.88
2022-10-18T12:28:51.434Z,103137.41
2022-10-18T12:31:39.518Z,103138.78
2022-10-18T12:34:28.149Z,103145.94
2022-10-18T12:37:26.074Z,103139.72
2022-10-18T12:40:09.869Z,103139.13
2022-10-18T12:42:44.571Z,103123.19
2022-10-18T12:45:13.736Z,103137.13
2022-10-18T12:47:40.618Z,103137.91
2022-10-18T12:50:26.872Z,103113.59
2022-10-18T12:53:02.087Z,103134.09
2022-10-18T12:55:38.746Z,103106.81
2022-10-18T12:58:22.736Z,103124.41
2022-10-18T13:00:49.146Z,103136.47
2022-10-18T13:03:18.475Z,103136.53
2022-10-18T13:05:53.561Z,103130.06
2022-10-18T13:08:27.095Z,103140.75
2022-10-18T13:11:11.853Z,103140.38
2022-10-18T13:14:08.134Z,103134.72
2022-10-18T13:16:58.539Z,103123.81
2022-10-18T13:19:32.929Z,103128.44
2022-10-18T13:22:37.247Z,103143.75
2022-10-18T13:25:24.763Z,103133.84
2022-10-18T13:28:00.254Z,103134.38
2022-10-18T13:30:39.659Z,103133.44
2022-10-18T13:33:17.961Z,103106.75
2022-10-18T13:35:55.748Z,103130.69
2022-10-18T13:38:42.184Z,103133.44
2022-10-18T13:41:10.888Z,103141.75
2022-10-18T13:43:52.971Z,103115.16
2022-10-18T13:46:20.278Z,103120.81
2022-10-18T13:48:53.086Z,103137.22
2022-10-18T13:51:40.570Z,103136.25
2022-10-18T13:54:18.404Z,103137.91
2022-10-18T13:57:17.433Z,103151.75
2022-10-18T13:59:59.028Z,103140.44
2022-10-18T14:02:56.896Z,103153.72
2022-10-18T14:06:06.734Z,103145.78
2022-10-18T14:11:38.308Z,103146.50
2022-10-18T14:14:34.857Z,103137.47
2022-10-18T14:17:25.416Z,103134.69
2022-10-18T14:19:58.358Z,103128.66
2022-10-18T14:22:31.625Z,103140.03
2022-10-18T14:24:59.269Z,103135.88
2022-10-18T14:27:27.006Z,103135.19
2022-10-18T14:30:08.934Z,103145.22
2022-10-18T14:32:36.108Z,103131.44
2022-10-18T14:35:32.876Z,103152.22
2022-10-18T14:37:52.396Z,103148.16
2022-10-18T14:40:27.953Z,103149.91
2022-10-18T14:42:54.387Z,103152.66
2022-10-18T14:45:21.975Z,103167.00
2022-10-18T14:47:48.832Z,103162.25
2022-10-18T14:50:25.442Z,103163.47
2022-10-18T14:52:53.884Z,103149.66
2022-10-18T14:55:24.819Z,103152.53
2022-10-18T14:57:51.466Z,103166.66
2022-10-18T15:00:25.897Z,103158.66
2022-10-18T15:02:52.875Z,103145.06
2022-10-18T15:05:22.882Z,103165.41
2022-10-18T15:07:51.615Z,103148.06
2022-10-18T15:10:23.808Z,103152.13
2022-10-18T15:13:08.631Z,103157.59
2022-10-18T15:15:36.467Z,103142.09
2022-10-18T15:18:05.254Z,103149.34
2022-10-18T15:20:35.178Z,103156.16
2022-10-18T15:23:25.849Z,103168.88
2022-10-18T15:26:04.596Z,103156.69
2022-10-18T15:28:36.060Z,103162.91
2022-10-18T15:31:02.956Z,103161.50
2022-10-18T15:33:34.484Z,103145.84
2022-10-18T15:36:12.379Z,103152.38
2022-10-18T15:38:38.985Z,103156.91
2022-10-18T15:41:41.187Z,103159.72
2022-10-18T15:44:31.648Z,103158.47
2022-10-18T15:47:13.253Z,103152.41
2022-10-18T15:49:46.154Z,103152.34
2022-10-18T15:52:35.230Z,103160.41
2022-10-18T15:55:22.963Z,103152.53
2022-10-18T15:57:49.566Z,103157.88
2022-10-18T16:00:20.029Z,103146.91
2022-10-18T16:02:46.558Z,103153.31
2022-10-18T16:05:20.668Z,103148.19
2022-10-18T16:07:51.739Z,103156.41
2022-10-18T16:10:18.313Z,103162.75
2022-10-18T16:12:44.736Z,103155.81
2022-10-18T16:15:11.207Z,103159.47
2022-10-18T16:17:38.264Z,103169.41
2022-10-18T16:20:05.220Z,103169.59
2022-10-18T16:22:34.751Z,103169.78
2022-10-18T16:25:03.594Z,103168.78
2022-10-18T16:27:30.153Z,103155.13
2022-10-18T16:29:56.648Z,103157.84
2022-10-18T16:32:23.021Z,103175.97
2022-10-18T16:34:49.476Z,103182.28
2022-10-18T16:37:15.930Z,103185.00
2022-10-18T16:39:42.372Z,103178.81
2022-10-18T16:42:08.761Z,103179.91
2022-10-18T16:44:35.240Z,103162.75
2022-10-18T16:47:01.792Z,103191.72
2022-10-18T16:49:28.434Z,103178.13
2022-10-18T16:51:55.063Z,103187.78
2022-10-18T16:54:21.616Z,103178.41
2022-10-18T16:56:49.930Z,103181.06
2022-10-18T16:59:24.075Z,103190.84
2022-10-18T17:01:50.553Z,103188.31
2022-10-18T17:04:16.985Z,103198.25
2022-10-18T17:06:43.615Z,103212.00
2022-10-18T17:09:13.599Z,103209.44
2022-10-18T17:11:40.021Z,103209.84
2022-10-18T17:14:06.454Z,103213.25
2022-10-18T17:16:34.946Z,103209.28
2022-10-18T17:19:04.245Z,103226.03
2022-10-18T17:21:33.338Z,103227.03
2022-10-18T17:24:02.950Z,103211.06
2022-10-18T17:26:30.429Z,103219.88
2022-10-18T17:29:02.822Z,103228.16
2022-10-18T17:31:30.556Z,103223.91
2022-10-18T17:33:58.568Z,103218.13
2022-10-18T17:36:25.319Z,103222.25
2022-10-18T17:38:53.047Z,103228.81
2022-10-18T17:41:19.556Z,103232.66
2022-10-18T17:43:47.821Z,103237.75
2022-10-18T17:46:14.574Z,103232.84
2022-10-18T17:48:41.840Z,103227.72
2022-10-18T17:51:10.216Z,103234.81
2022-10-18T17:53:36.947Z,103214.19
2022-10-18T17:56:05.022Z,103220.22
2022-10-18T17:58:31.673Z,103226.59
2022-10-18T18:01:07.484Z,103220.59
2022-10-18T18:03:34.083Z,103235.56
2022-10-18T18:06:00.593Z,103230.50
2022-10-18T18:08:27.064Z,103228.56
2022-10-18T18:10:56.574Z,103224.13
2022-10-18T18:13:23.020Z,103247.19
2022-10-18T18:15:49.575Z,103249.16
2022-10-18T18:18:16.044Z,103249.47
2022-10-18T18:20:51.372Z,103246.16
2022-10-18T18:23:19.779Z,103249.78
2022-10-18T18:25:55.994Z,103268.41
2022-10-18T18:28:22.485Z,103254.34
2022-10-18T18:30:48.967Z,103253.06
2022-10-18T18:33:15.364Z,103258.38
2022-10-18T18:35:41.762Z,103256.63
2022-10-18T18:38:09.085Z,103248.88
2022-10-18T18:40:35.601Z,103252.56
2022-10-18T18:43:12.332Z,103261.91
2022-10-18T18:45:50.944Z,103261.81
2022-10-18T18:48:19.746Z,103254.75
2022-10-18T18:50:51.168Z,103249.47
2022-10-18T18:53:18.335Z,103247.81
2022-10-18T18:55:45.151Z,103250.59
2022-10-18T18:58:12.164Z,103251.69
2022-10-18T19:00:43.417Z,103261.59
2022-10-18T19:03:11.993Z,103253.94
2022-10-18T19:05:38.490Z,103250.59
2022-10-18T19:08:05.388Z,103254.28
2022-10-18T19:10:31.856Z,103257.06
2022-10-18T19:12:58.467Z,103256.50
2022-10-18T19:15:24.983Z,103271.44
2022-10-18T19:17:51.453Z,103259.31
2022-10-18T19:20:18.141Z,103253.06
2022-10-18T19:22:45.577Z,103267.28
2022-10-18T19:25:12.282Z,103269.19
2022-10-18T19:27:38.868Z,103253.56
2022-10-18T19:30:09.016Z,103254.44
2022-10-18T19:32:35.406Z,103267.69
2022-10-18T19:35:01.893Z,103255.56
2022-10-18T19:37:28.362Z,103242.66
2022-10-18T19:39:54.858Z,103262.88
2022-10-18T19:42:24.202Z,103274.25
2022-10-18T19:44:52.739Z,103243.13
2022-10-18T19:47:20.450Z,103272.72
2022-10-18T19:49:47.965Z,103271.91
2022-10-18T19:52:14.581Z,103268.44
2022-10-18T19:54:41.406Z,103240.75
2022-10-18T19:57:08.641Z,103263.41
2022-10-18T19:59:36.035Z,103255.75
2022-10-18T20:02:04.684Z,103267.31
2022-10-18T20:04:34.528Z,103244.66
2022-10-18T20:07:02.673Z,103262.13
2022-10-18T20:09:29.221Z,103258.66
2022-10-18T20:11:55.747Z,103266.72
2022-10-18T20:14:22.242Z,103260.63
2022-10-18T20:16:48.676Z,103260.56
2022-10-18T20:19:15.148Z,103238.19
2022-10-18T20:21:41.638Z,103270.50
2022-10-18T20:24:09.409Z,103272.31
2022-10-18T20:26:36.456Z,103254.25
2022-10-18T20:29:04.284Z,103273.31
2022-10-18T20:31:35.490Z,103281.34
2022-10-18T20:34:03.643Z,103279.63
2022-10-18T20:36:32.320Z,103281.44
2022-10-18T20:38:59.261Z,103275.38
2022-10-18T20:41:27.126Z,103284.25
2022-10-18T20:43:55.337Z,103286.13
2022-10-18T20:46:22.556Z,103275.72
2022-10-18T20:48:50.631Z,103268.69
2022-10-18T20:51:17.827Z,103272.13
2022-10-18T20:53:45.524Z,103272.22
2022-10-18T20:56:14.563Z,103282.84
2022-10-18T20:58:42.809Z,103278.63
2022-10-18T21:01:12.226Z,103269.06
2022-10-18T21:03:46.037Z,103266.44
2022-10-18T21:06:17.671Z,103279.59
2022-10-18T21:08:44.914Z,103272.63
2022-10-18T21:11:12.305Z,103272.72
2022-10-18T21:13:40.838Z,103275.34
2022-10-18T21:16:07.688Z,103273.63
2022-10-18T21:18:36.424Z,103268.47
2022-10-18T21:23:45.224Z,103245.06
2022-10-18T21:26:23.069Z,103269.44
2022-10-18T21:28:58.556Z,103278.22
2022-10-18T21:31:27.098Z,103280.00
2022-10-18T21:33:56.629Z,103278.31
2022-10-18T21:36:23.646Z,103269.25
2022-10-18T21:38:50.725Z,103263.78
2022-10-18T21:41:19.280Z,103276.75
2022-10-18T21:43:47.970Z,103261.84
2022-10-18T21:46:15.930Z,103273.09
2022-10-18T21:48:50.617Z,103254.78
2022-10-18T21:51:19.665Z,103268.81
2022-10-18T21:53:48.439Z,103265.41
2022-10-18T21:56:18.431Z,103259.44
2022-10-18T21:58:45.877Z,103270.00
2022-10-18T22:01:14.608Z,103268.28
2022-10-18T22:03:41.636Z,103260.59
2022-10-18T22:06:13.757Z,103259.78
2022-10-18T22:08:45.631Z,103263.34
2022-10-18T22:11:13.500Z,103261.69
2022-10-18T22:13:40.899Z,103251.19
2022-10-18T22:16:08.113Z,103240.81
2022-10-18T22:18:35.302Z,103253.06
2022-10-18T22:21:05.167Z,103249.56
2022-10-18T22:23:36.925Z,103247.06
2022-10-18T22:26:11.242Z,103236.47
2022-10-18T22:28:39.034Z,103244.38
2022-10-18T22:31:06.338Z,103242.66
2022-10-18T22:33:32.809Z,103255.97
2022-10-18T22:35:59.265Z,103235.09
2022-10-18T22:38:25.766Z,103223.97
2022-10-18T22:40:52.230Z,103249.19
2022-10-18T22:43:18.754Z,103260.72
2022-10-18T22:45:45.156Z,103254.47
2022-10-18T22:48:11.607Z,103245.78
2022-10-18T22:50:38.007Z,103245.75
2022-10-18T22:53:04.403Z,103243.16
2022-10-18T22:55:30.832Z,103238.00
2022-10-18T22:57:57.230Z,103241.53
2022-10-18T23:00:23.823Z,103224.19
2022-10-18T23:02:50.323Z,103242.47
2022-10-18T23:05:16.856Z,103234.53
2022-10-18T23:07:49.100Z,103228.50
2022-10-18T23:10:15.685Z,103239.06
2022-10-18T23:12:42.390Z,103240.00
2022-10-18T23:15:09.332Z,103232.09
2022-10-18T23:17:36.156Z,103234.75
2022-10-18T23:20:03.352Z,103231.28
2022-10-18T23:22:29.856Z,103207.81
2022-10-18T23:24:56.324Z,103229.50
2022-10-18T23:27:22.952Z,103220.81
2022-10-18T23:29:49.366Z,103233.19
2022-10-18T23:32:16.225Z,103229.75
2022-10-18T23:34:42.666Z,103233.16
2022-10-18T23:37:09.068Z,103243.84
2022-10-18T23:39:35.480Z,103240.41
2022-10-18T23:42:01.868Z,103218.63
2022-10-18T23:44:28.288Z,103244.78
2022-10-18T23:46:54.812Z,103232.59
2022-10-18T23:49:21.199Z,103225.63
2022-10-18T23:51:47.591Z,103240.47
2022-10-18T23:54:14.072Z,103236.16
2022-10-18T23:56:40.487Z,103245.84
2022-10-18T23:59:06.906Z,103252.00
